Time;durP1;ratioP1;P1;durP2;ratioP2;P2;SDS_P1;SDS_P2;PMS_P1;PMS_P2;Temp;Humidity;BMP_temperature;BMP_pressure;BME280_temperature;BME280_humidity;BME280_pressure;Samples;Min_cycle;Max_cycle;Signal;HPM_P1;HPM_P2
2023/09/09 00:05:37;;;;;;;0.20;0.20;;;;;;;17.35;60.14;100139.22;4408750;32;20088;-94
2023/09/09 00:08:03;;;;;;;0.43;0.37;;;;;;;17.39;60.14;100125.81;4405518;32;20509;-96
2023/09/09 00:10:29;;;;;;;0.30;0.22;;;;;;;17.38;60.14;100137.28;4371224;32;20091;-94
2023/09/09 00:12:56;;;;;;;0.28;0.28;;;;;;;17.56;60.15;100127.53;4383691;32;20098;-96
2023/09/09 00:15:22;;;;;;;0.20;0.13;;;;;;;17.43;60.14;100129.97;4384661;32;20109;-96
2023/09/09 00:17:51;;;;;;;0.10;0.10;;;;;;;17.46;60.15;100129.81;4376694;32;20106;-96
2023/09/09 00:20:16;;;;;;;1.00;0.43;;;;;;;17.54;60.14;100131.19;4397839;32;20482;-96
2023/09/09 00:22:42;;;;;;;0.30;0.30;;;;;;;17.41;60.14;100131.00;4384265;32;20146;-95
2023/09/09 00:25:08;;;;;;;0.47;0.45;;;;;;;17.25;60.13;100130.97;4387078;32;20138;-95
2023/09/09 00:28:17;;;;;;;0.55;0.47;;;;;;;17.33;60.14;100131.41;4388283;32;20070;-96
2023/09/09 00:30:42;;;;;;;0.20;0.20;;;;;;;17.46;60.15;100127.19;4407529;32;20155;-96
2023/09/09 00:33:08;;;;;;;0.25;0.20;;;;;;;17.31;60.14;100128.03;4372324;32;20091;-96
2023/09/09 00:39:22;;;;;;;0.10;0.10;;;;;;;17.28;60.13;100127.34;4407656;32;20128;-96
2023/09/09 00:42:08;;;;;;;0.10;0.10;;;;;;;17.34;60.14;100130.50;4396479;32;20086;-96
2023/09/09 00:44:33;;;;;;;0.30;0.28;;;;;;;17.30;60.13;100136.00;4384209;32;20490;-96
2023/09/09 00:47:00;;;;;;;0.10;0.10;;;;;;;17.35;60.14;100123.44;4394246;32;20154;-96
2023/09/09 00:49:25;;;;;;;0.60;0.22;;;;;;;17.28;60.13;100120.31;4375900;32;20807;-96
2023/09/09 00:51:51;;;;;;;0.35;0.35;;;;;;;17.33;60.13;100133.19;4384390;32;20116;-96
2023/09/09 00:54:16;;;;;;;0.20;0.15;;;;;;;17.32;60.14;100121.81;4386874;32;20107;-96
2023/09/09 00:56:42;;;;;;;5.35;1.65;;;;;;;17.27;60.13;100128.25;4369684;32;20146;-96
2023/09/09 00:59:10;;;;;;;1.50;0.40;;;;;;;17.20;60.12;100125.09;4396280;32;20110;-96
2023/09/09 01:01:36;;;;;;;0.08;0.08;;;;;;;17.29;60.13;100129.03;4384510;32;20134;-96
2023/09/09 01:04:02;;;;;;;0.82;0.82;;;;;;;17.26;60.13;100129.19;4397553;32;20120;-96
2023/09/09 01:06:28;;;;;;;1.30;0.95;;;;;;;17.10;60.13;100127.38;4397149;32;20093;-96
2023/09/09 01:08:54;;;;;;;0.20;0.20;;;;;;;17.05;60.12;100126.78;4384539;32;20102;-96
2023/09/09 01:11:23;;;;;;;0.77;0.70;;;;;;;17.08;60.13;100123.13;4371898;32;20114;-96
2023/09/09 01:13:53;;;;;;;0.85;0.20;;;;;;;17.09;60.13;100123.06;4399334;32;20074;-96
2023/09/09 01:16:24;;;;;;;0.17;0.10;;;;;;;17.04;60.12;100124.22;4401693;32;20102;-96
2023/09/09 01:18:52;;;;;;;0.10;0.10;;;;;;;17.09;60.12;100120.41;4387844;32;20101;-95
2023/09/09 01:21:21;;;;;;;0.03;0.03;;;;;;;17.07;60.12;100114.41;4387950;32;20463;-96
2023/09/09 01:23:50;;;;;;;0.10;0.10;;;;;;;17.10;60.12;100113.38;4402184;32;20066;-96
2023/09/09 01:26:27;;;;;;;0.37;0.37;;;;;;;17.05;60.12;100126.78;4399702;32;20102;-96
2023/09/09 01:28:59;;;;;;;0.25;0.25;;;;;;;16.93;60.12;100124.78;4401911;32;20127;-96
2023/09/09 01:31:31;;;;;;;0.15;0.15;;;;;;;17.01;60.12;100121.72;4403149;32;20099;-96
2023/09/09 01:34:05;;;;;;;0.80;0.80;;;;;;;16.92;60.11;100123.06;4402627;32;20092;-96
2023/09/09 01:36:36;;;;;;;0.68;0.47;;;;;;;17.08;60.13;100117.88;4402329;32;20079;-96
2023/09/09 01:39:13;;;;;;;0.10;0.10;;;;;;;16.94;60.11;100118.59;4404047;32;20086;-96
2023/09/09 01:44:18;;;;;;;0.17;0.13;;;;;;;17.00;60.11;100122.66;4692382;27;20054;-96
2023/09/09 01:46:47;;;;;;;0.95;0.37;;;;;;;17.01;60.12;100119.09;4378134;32;20141;-95
2023/09/09 01:49:22;;;;;;;2.60;0.93;;;;;;;17.00;60.12;100118.25;4394237;32;20463;-96
2023/09/09 01:51:52;;;;;;;0.70;0.45;;;;;;;17.01;60.12;100127.84;4420983;32;20073;-96
2023/09/09 01:55:00;;;;;;;1.37;1.27;;;;;;;17.11;60.12;100113.28;4394161;32;20066;-96
2023/09/09 02:01:51;;;;;;;0.40;0.40;;;;;;;16.94;60.12;100121.22;4449107;27;20115;-96
2023/09/09 02:04:46;;;;;;;0.22;0.22;;;;;;;17.09;60.13;100111.69;4432824;32;20062;-96
2023/09/09 02:07:23;;;;;;;0.00;0.00;;;;;;;16.98;60.12;100112.22;4435764;32;20066;-96
2023/09/09 02:09:57;;;;;;;0.35;0.35;;;;;;;16.87;60.11;100122.47;4436098;32;20081;-96
2023/09/09 02:12:28;;;;;;;1.05;0.30;;;;;;;16.90;60.11;100117.06;4434523;32;20057;-96
2023/09/09 02:16:05;;;;;;;0.35;0.35;;;;;;;16.92;60.11;100114.34;4434915;32;20814;-96
2023/09/09 02:41:43;;;;;;;0.25;0.25;;;;;;;16.77;60.11;100108.09;4348780;32;20654;-94
2023/09/09 02:44:21;;;;;;;;;;;;;;;;;;;;;
2023/09/09 02:50:03;;;;;;;0.30;0.30;;;;;;;16.81;60.10;100101.78;4310915;33;20073;-94
2023/09/09 02:52:51;;;;;;;0.47;0.47;;;;;;;16.65;60.10;100111.34;4284585;33;20100;-96
2023/09/09 02:55:40;;;;;;;0.10;0.05;;;;;;;16.83;60.10;100110.41;4286532;33;20112;-94
2023/09/09 02:58:23;;;;;;;0.10;0.10;;;;;;;16.74;60.10;100110.88;4291000;33;20116;-94
2023/09/09 03:01:23;;;;;;;0.00;0.00;;;;;;;16.74;60.10;100109.09;4277043;33;20064;-96
2023/09/09 03:10:06;;;;;;;0.00;0.00;;;;;;;16.70;60.11;100097.06;4315255;33;20112;-96
2023/09/09 03:12:41;;;;;;;0.08;0.08;;;;;;;16.79;60.11;100098.34;4324351;33;20072;-96
2023/09/09 03:15:20;;;;;;;0.20;0.20;;;;;;;16.73;60.10;100094.25;4298940;33;20224;-96
2023/09/09 03:17:57;;;;;;;0.35;0.35;;;;;;;16.53;60.08;100094.41;4326441;33;20104;-94
2023/09/09 03:20:25;;;;;;;0.20;0.20;;;;;;;16.70;60.09;100090.94;4328099;33;20131;-96
2023/09/09 03:22:59;;;;;;;0.08;0.08;;;;;;;16.68;60.09;100088.41;4327869;33;20060;-96
2023/09/09 03:25:35;;;;;;;0.10;0.10;;;;;;;16.51;60.09;100085.75;4330615;33;20056;-96
2023/09/09 03:28:03;;;;;;;0.20;0.20;;;;;;;16.69;60.09;100079.59;4331254;33;20134;-96
2023/09/09 03:31:06;;;;;;;0.90;0.82;;;;;;;16.69;60.09;100084.84;4307485;33;20077;-96
2023/09/09 03:34:16;;;;;;;0.68;0.17;;;;;;;16.59;60.09;100091.47;4301774;33;20083;-96
2023/09/09 03:36:51;;;;;;;9.07;0.70;;;;;;;16.55;60.09;100082.03;4329367;33;20083;-96
2023/09/09 03:39:17;;;;;;;0.30;0.15;;;;;;;16.53;60.09;100081.25;4313476;33;20091;-95
2023/09/09 03:41:43;;;;;;;0.32;0.13;;;;;;;16.48;60.09;100080.66;4306687;33;20152;-96
2023/09/09 03:44:14;;;;;;;0.30;0.20;;;;;;;16.51;60.08;100083.12;4310355;33;20092;-96
2023/09/09 03:46:39;;;;;;;;;;;;;;;16.55;60.09;100082.88;4304885;33;20167;-96
2023/09/09 03:49:05;;;;;;;0.35;0.20;;;;;;;16.61;60.09;100086.12;4334277;33;19995;-95
2023/09/09 03:51:30;;;;;;;0.13;0.13;;;;;;;16.51;60.09;100086.59;4312105;33;20163;-96
2023/09/09 03:53:56;;;;;;;0.30;0.30;;;;;;;16.38;60.08;100085.53;4314239;33;20111;-96
2023/09/09 03:56:24;;;;;;;0.00;0.00;;;;;;;16.48;60.09;100088.53;4303062;33;20103;-96
2023/09/09 03:58:50;;;;;;;0.00;0.00;;;;;;;16.44;60.08;100082.59;4331303;33;20132;-96
2023/09/09 04:01:15;;;;;;;0.30;0.20;;;;;;;16.47;60.09;100089.47;4320409;33;20099;-96
2023/09/09 04:03:41;;;;;;;0.03;0.03;;;;;;;16.46;60.08;100082.50;4299778;33;20152;-96
2023/09/09 04:06:08;;;;;;;0.52;0.52;;;;;;;16.41;60.08;100088.00;4307380;33;20121;-94
2023/09/09 04:08:37;;;;;;;0.00;0.00;;;;;;;16.38;60.08;100084.69;4320361;33;20104;-95
2023/09/09 04:13:51;;;;;;;0.00;0.00;;;;;;;16.49;60.08;100101.59;4474433;27;20113;-95
2023/09/09 04:16:19;;;;;;;0.22;0.22;;;;;;;16.59;60.09;100104.63;4349479;32;20086;-96
2023/09/09 04:18:56;;;;;;;0.55;0.55;;;;;;;16.65;60.09;100099.03;4340657;32;20107;-95
2023/09/09 04:46:50;;;;;;;;;;;;;;;;;;;;;
2023/09/09 04:49:22;;;;;;;7.05;1.08;;;;;;;16.79;60.10;100107.06;4304337;33;35522;-95
2023/09/09 04:51:56;;;;;;;0.10;0.10;;;;;;;16.82;60.10;100112.22;4314434;33;20171;-95
2023/09/09 04:55:44;;;;;;;0.65;0.47;;;;;;;16.95;60.11;100109.75;4322846;33;20132;-96
2023/09/09 04:58:03;;;;;;;0.30;0.30;;;;;;;16.88;60.11;100113.66;4314857;33;20122;-95
2023/09/09 05:00:28;;;;;;;1.20;1.00;;;;;;;17.07;60.11;100110.91;4324460;32;20147;-96
2023/09/09 05:02:54;;;;;;;0.00;0.00;;;;;;;17.15;60.12;100114.84;4325687;33;20115;-96
2023/09/09 05:08:50;;;;;;;1.02;0.20;;;;;;;17.33;60.13;100120.03;4403436;27;20114;-94
2023/09/09 05:11:27;;;;;;;0.60;0.55;;;;;;;17.44;60.13;100121.16;4352655;32;20096;-96
2023/09/09 05:14:12;;;;;;;3.50;0.85;;;;;;;17.41;60.14;100117.84;4353594;32;20477;-95
2023/09/09 05:38:29;;;;;;;0.88;0.88;;;;;;;18.56;60.19;100126.25;4312425;33;20520;-96
2023/09/09 05:41:09;;;;;;;1.40;1.17;;;;;;;18.79;60.20;100130.19;4302935;33;20108;-95
2023/09/09 06:46:04;;;;;;;;;;;;;;;23.43;60.45;100114.63;4465133;31;821384;-92
2023/09/09 06:48:30;;;;;;;1.55;1.45;;;;;;;23.43;60.45;100114.63;4499115;31;19983;-92
2023/09/09 06:50:55;;;;;;;0.32;0.32;;;;;;;23.02;60.42;100123.19;4498949;31;20109;-92
2023/09/09 06:53:21;;;;;;;0.60;0.43;;;;;;;23.16;60.43;100127.41;4485559;31;20104;-91
2023/09/09 06:55:47;;;;;;;0.80;0.47;;;;;;;23.28;60.44;100126.47;4485538;31;20156;-93
2023/09/09 06:58:12;;;;;;;0.75;0.75;;;;;;;23.28;60.44;100127.31;4499167;31;20108;-92
2023/09/09 07:00:38;;;;;;;1.25;0.70;;;;;;;23.36;60.44;100133.81;4475032;31;20139;-92
2023/09/09 07:03:04;;;;;;;0.00;0.00;;;;;;;23.46;60.44;100130.31;4477225;32;20188;-91
2023/09/09 07:05:31;;;;;;;0.47;0.47;;;;;;;23.78;60.46;100130.44;4481197;31;20108;-92
2023/09/09 07:07:56;;;;;;;0.00;0.00;;;;;;;23.97;60.48;100119.16;4486004;31;20122;-93
2023/09/09 07:10:22;;;;;;;0.00;0.00;;;;;;;23.97;60.46;100134.25;4499006;31;20130;-92
2023/09/09 07:12:49;;;;;;;4.35;1.17;;;;;;;24.06;60.48;100131.69;4474289;32;20188;-90
2023/09/09 07:15:15;;;;;;;0.22;0.22;;;;;;;24.35;60.49;100139.94;4489579;31;20089;-91
2023/09/09 07:17:43;;;;;;;2.10;0.32;;;;;;;24.43;60.49;100136.66;4476604;31;20134;-90
2023/09/09 07:20:09;;;;;;;0.28;0.28;;;;;;;24.61;60.51;100135.13;4505689;31;20110;-90
2023/09/09 07:22:34;;;;;;;1.15;0.80;;;;;;;24.54;60.51;100139.25;4502965;31;20344;-91
2023/09/09 07:24:59;;;;;;;1.08;1.02;;;;;;;24.73;60.51;100128.75;4485469;31;20108;-91
2023/09/09 07:27:25;;;;;;;0.52;0.50;;;;;;;24.74;60.51;100135.75;4505640;31;20108;-91
2023/09/09 07:29:50;;;;;;;4.75;1.00;;;;;;;24.91;60.52;100131.66;4506448;31;20155;-92
2023/09/09 07:32:16;;;;;;;0.30;0.30;;;;;;;25.16;60.54;100132.25;4480652;32;20084;-92
2023/09/09 07:34:41;;;;;;;0.10;0.10;;;;;;;25.37;60.55;100127.72;4489353;31;20112;-92
2023/09/09 07:37:07;;;;;;;0.20;0.20;;;;;;;25.26;60.54;100135.78;4495949;32;20104;-91
2023/09/09 07:39:43;;;;;;;0.80;0.60;;;;;;;25.31;60.55;100128.22;4506853;31;20080;-92
2023/09/09 07:42:08;;;;;;;1.75;0.75;;;;;;;25.43;60.55;100134.31;4496574;32;20114;-92
2023/09/09 07:44:34;;;;;;;0.30;0.30;;;;;;;25.43;60.56;100135.16;4480253;31;20172;-92
2023/09/09 07:46:59;;;;;;;2.90;1.27;;;;;;;25.65;60.57;100131.44;4467020;31;21583;-92
2023/09/09 07:49:25;;;;;;;0.93;0.50;;;;;;;25.69;60.56;100131.06;4492416;31;20124;-91
2023/09/09 07:51:50;;;;;;;3.03;0.57;;;;;;;25.78;60.58;100140.06;4465888;32;20516;-92
2023/09/09 07:54:15;;;;;;;1.55;0.95;;;;;;;25.90;60.57;100133.66;4470845;32;20136;-90
2023/09/09 07:56:45;;;;;;;1.55;0.93;;;;;;;26.04;60.58;100132.41;4475659;32;20179;-92
2023/09/09 07:59:10;;;;;;;0.70;0.45;;;;;;;26.22;60.59;100133.38;4483571;31;20092;-93
2023/09/09 08:01:36;;;;;;;0.37;0.37;;;;;;;26.29;60.60;100133.69;4474718;31;20092;-91
2023/09/09 08:04:01;;;;;;;1.80;0.93;;;;;;;26.37;60.60;100133.84;4490085;31;20077;-92
2023/09/09 08:06:27;;;;;;;0.55;0.55;;;;;;;26.52;60.61;100131.63;4485390;32;20182;-91
2023/09/09 08:08:52;;;;;;;1.50;0.77;;;;;;;26.61;60.61;100125.41;4482602;31;20167;-92
2023/09/09 08:11:18;;;;;;;0.37;0.37;;;;;;;26.63;60.61;100134.12;4465925;31;20114;-92
2023/09/09 08:13:43;;;;;;;0.70;0.60;;;;;;;26.64;60.61;100126.94;4472190;31;20125;-92
2023/09/09 08:16:09;;;;;;;0.73;0.62;;;;;;;26.85;60.62;100135.63;4456268;31;20130;-92
2023/09/09 08:18:34;;;;;;;0.47;0.43;;;;;;;26.90;60.63;100131.53;4487600;31;20122;-92
2023/09/09 08:21:00;;;;;;;0.82;0.52;;;;;;;27.06;60.64;100128.28;4474824;31;20103;-91
2023/09/09 08:23:26;;;;;;;0.50;0.35;;;;;;;27.09;60.64;100129.84;4473099;31;20103;-91
2023/09/09 08:25:51;;;;;;;0.00;0.00;;;;;;;27.17;60.64;100130.78;4478290;31;20096;-92
2023/09/09 08:28:17;;;;;;;0.47;0.47;;;;;;;27.24;60.64;100131.06;4461469;32;20112;-91
2023/09/09 08:30:42;;;;;;;0.35;0.35;;;;;;;27.41;60.66;100126.75;4478192;31;20095;-91
2023/09/09 08:33:08;;;;;;;0.82;0.62;;;;;;;27.40;60.65;100123.22;4487782;31;20120;-93
2023/09/09 08:35:33;;;;;;;7.60;1.48;;;;;;;27.53;60.67;100125.56;4462669;32;20399;-92
2023/09/09 08:37:59;;;;;;;0.28;0.28;;;;;;;27.61;60.67;100117.63;4465256;31;20417;-92
2023/09/09 08:40:27;;;;;;;0.20;0.20;;;;;;;27.73;60.68;100121.00;4491399;31;20069;-94
2023/09/09 08:43:05;;;;;;;0.95;0.37;;;;;;;27.80;60.67;100128.25;4486448;31;20212;-94
2023/09/09 08:45:47;;;;;;;0.10;0.10;;;;;;;27.98;60.69;100122.94;4485199;32;20759;-93
2023/09/09 08:48:14;;;;;;;0.35;0.35;;;;;;;27.92;60.69;100115.53;4474507;31;20147;-93
2023/09/09 08:50:40;;;;;;;1.65;0.62;;;;;;;28.12;60.69;100122.41;4474835;31;20472;-94
2023/09/09 08:53:05;;;;;;;0.37;0.32;;;;;;;28.16;60.70;100117.59;4467916;32;21334;-94
2023/09/09 08:55:31;;;;;;;1.65;1.00;;;;;;;28.38;60.71;100117.12;4488629;31;20127;-93
2023/09/09 08:57:57;;;;;;;0.50;0.50;;;;;;;28.44;60.71;100121.06;4469182;32;20154;-94
2023/09/09 09:00:23;;;;;;;0.75;0.75;;;;;;;28.42;60.71;100120.38;4463146;32;20130;-94
2023/09/09 09:02:48;;;;;;;0.43;0.20;;;;;;;28.58;60.71;100122.31;4454175;32;20140;-94
2023/09/09 09:05:14;;;;;;;0.65;0.57;;;;;;;28.83;60.73;100116.13;4476220;31;20101;-93
2023/09/09 09:07:39;;;;;;;0.20;0.20;;;;;;;28.90;60.73;100119.91;4470265;32;20145;-94
2023/09/09 09:10:05;;;;;;;0.43;0.40;;;;;;;29.01;60.75;100121.47;4482981;31;20105;-94
2023/09/09 09:12:31;;;;;;;0.25;0.25;;;;;;;29.01;60.75;100119.63;4488121;32;20084;-94
2023/09/09 09:14:56;;;;;;;0.60;0.60;;;;;;;29.08;60.74;100113.62;4486698;31;20108;-94
2023/09/09 09:17:26;;;;;;;0.65;0.65;;;;;;;29.24;60.74;100119.09;4481639;31;20365;-94
2023/09/09 09:19:53;;;;;;;0.57;0.57;;;;;;;29.44;60.76;100115.16;4481465;31;20083;-90
2023/09/09 09:22:18;;;;;;;1.17;1.02;;;;;;;29.32;60.77;100111.91;4467551;32;20134;-93
2023/09/09 09:24:44;;;;;;;0.52;0.52;;;;;;;29.33;60.76;100108.22;4477870;31;20357;-92
2023/09/09 09:27:11;;;;;;;1.02;0.90;;;;;;;29.55;60.76;100104.16;4464721;32;20056;-94
2023/09/09 09:29:45;;;;;;;0.60;0.60;;;;;;;29.59;60.78;100104.72;4451897;32;20081;-93
2023/09/09 09:32:10;;;;;;;0.62;0.43;;;;;;;29.54;60.76;100102.47;4447717;32;20158;-92
2023/09/09 09:34:36;;;;;;;1.55;0.95;;;;;;;29.62;60.77;100107.06;4458628;31;20120;-94
2023/09/09 09:37:10;;;;;;;0.00;0.00;;;;;;;29.51;60.77;100101.97;4475018;31;20118;-94
2023/09/09 09:39:36;;;;;;;0.95;0.82;;;;;;;29.72;60.79;100101.53;4461937;32;20703;-94
2023/09/09 09:42:02;;;;;;;1.20;0.88;;;;;;;29.71;60.79;100100.69;4466431;31;20124;-95
2023/09/09 09:44:28;;;;;;;0.40;0.40;;;;;;;29.91;60.80;100098.56;4453175;32;20111;-95
2023/09/09 09:47:04;;;;;;;1.17;1.00;;;;;;;30.12;60.79;100100.81;4458264;32;20097;-96
2023/09/09 09:49:51;;;;;;;3.65;0.70;;;;;;;30.29;60.81;100099.84;4504268;26;20078;-96
2023/09/09 09:53:02;;;;;;;0.40;0.40;;;;;;;30.45;60.82;100097.13;4493127;27;20062;-96
2023/09/09 10:26:49;;;;;;;5.57;0.85;;;;;;;31.72;60.88;100090.97;4869839;27;20009;-96
2023/09/09 10:29:15;;;;;;;0.40;0.40;;;;;;;31.85;60.88;100074.22;4431563;32;20357;-96
2023/09/09 10:31:41;;;;;;;1.05;0.80;;;;;;;32.13;60.90;100079.91;4431427;32;20415;-96
2023/09/09 10:34:06;;;;;;;0.28;0.28;;;;;;;32.31;60.91;100078.59;4431093;32;20105;-95
2023/09/09 10:36:37;;;;;;;0.73;0.50;;;;;;;32.47;60.92;100069.53;4428326;32;20092;-95
2023/09/09 10:39:02;;;;;;;0.22;0.22;;;;;;;32.58;60.92;100065.56;4429138;32;20093;-96
2023/09/09 10:41:29;;;;;;;0.88;0.82;;;;;;;32.58;60.92;100066.38;4429579;32;20111;-95
2023/09/09 10:43:54;;;;;;;0.57;0.45;;;;;;;32.63;60.92;100065.84;4424027;32;20101;-92
2023/09/09 10:46:37;;;;;;;0.98;0.90;;;;;;;32.82;60.93;100069.88;4441929;32;20131;-94
2023/09/09 10:49:03;;;;;;;0.75;0.30;;;;;;;32.99;60.94;100065.16;4417392;32;20115;-95
2023/09/09 10:51:29;;;;;;;0.50;0.50;;;;;;;33.18;60.95;100056.50;4412734;32;20085;-94
2023/09/09 10:54:10;;;;;;;0.22;0.17;;;;;;;33.19;60.96;100047.37;4432882;32;20473;-94
2023/09/09 10:56:44;;;;;;;2.83;1.27;;;;;;;33.32;60.96;100055.66;4419382;32;20105;-94
2023/09/09 10:59:19;;;;;;;1.62;1.00;;;;;;;33.36;60.96;100050.72;4442605;32;20114;-94
2023/09/09 11:01:44;;;;;;;1.55;1.20;;;;;;;33.55;60.97;100042.03;4468926;32;20141;-94
2023/09/09 11:04:23;;;;;;;0.20;0.20;;;;;;;33.68;60.98;100042.19;4429863;32;20112;-95
2023/09/09 11:07:04;;;;;;;0.25;0.25;;;;;;;33.82;60.99;100043.97;4430511;32;20716;-94
2023/09/09 11:09:30;;;;;;;0.75;0.32;;;;;;;33.77;60.98;100043.72;4430881;32;20089;-94
2023/09/09 11:11:55;;;;;;;0.55;0.55;;;;;;;33.71;60.99;100040.97;4429900;32;20131;-94
2023/09/09 11:14:21;;;;;;;1.70;1.10;;;;;;;33.90;60.99;100042.22;4427361;32;20108;-94
2023/09/09 11:16:48;;;;;;;0.65;0.50;;;;;;;33.70;60.98;100044.69;4444622;32;20101;-95
2023/09/09 11:19:16;;;;;;;0.20;0.20;;;;;;;33.90;60.99;100036.81;4427334;32;20094;-94
2023/09/09 11:21:44;;;;;;;1.75;0.40;;;;;;;33.68;60.99;100031.38;4422849;32;20207;-94
2023/09/09 11:24:09;;;;;;;0.32;0.32;;;;;;;33.64;60.98;100038.19;4429342;32;20105;-94
2023/09/09 11:26:40;;;;;;;0.28;0.28;;;;;;;33.70;60.98;100033.87;4415236;32;20105;-94
2023/09/09 11:29:06;;;;;;;0.57;0.57;;;;;;;33.84;60.99;100025.78;4421026;32;20157;-94
2023/09/09 11:31:31;;;;;;;1.58;0.68;;;;;;;33.91;60.99;100033.94;4429044;32;20182;-95
2023/09/09 11:33:57;;;;;;;0.50;0.45;;;;;;;33.98;61.00;100033.97;4416550;32;20117;-95
2023/09/09 11:36:23;;;;;;;0.70;0.70;;;;;;;34.11;61.01;100032.25;4429161;32;20239;-94
2023/09/09 11:38:48;;;;;;;1.70;0.68;;;;;;;34.25;61.01;100026.94;4414044;32;20098;-94
2023/09/09 11:41:23;;;;;;;0.17;0.17;;;;;;;34.24;61.01;100020.69;4441877;32;20130;-94
2023/09/09 11:43:58;;;;;;;1.02;0.95;;;;;;;34.40;61.02;100017.75;4416975;32;20126;-94
2023/09/09 11:46:24;;;;;;;0.43;0.43;;;;;;;34.34;61.01;100023.09;4429169;32;20499;-95
2023/09/09 11:48:50;;;;;;;1.20;0.55;;;;;;;34.29;61.01;100018.25;4429334;32;20538;-94
2023/09/09 11:51:16;;;;;;;0.73;0.40;;;;;;;34.16;61.01;100026.25;4419040;32;20089;-95
2023/09/09 11:53:41;;;;;;;1.65;0.62;;;;;;;34.22;61.01;100025.47;4416445;32;20197;-95
2023/09/09 11:56:07;;;;;;;0.47;0.47;;;;;;;34.24;61.01;100020.69;4416114;32;20145;-93
2023/09/09 11:58:41;;;;;;;0.52;0.50;;;;;;;34.41;61.02;100010.47;4441962;32;20109;-94
2023/09/09 12:01:07;;;;;;;1.48;0.98;;;;;;;34.37;61.02;100014.59;4414131;32;20453;-94
2023/09/09 12:03:32;;;;;;;2.58;1.35;;;;;;;34.35;61.01;100008.56;4433330;32;20132;-95
2023/09/09 12:05:58;;;;;;;0.77;0.77;;;;;;;34.28;61.02;100010.31;4401719;32;20109;-94
2023/09/09 12:08:25;;;;;;;0.55;0.55;;;;;;;34.06;61.00;100012.22;4410670;32;20136;-96
2023/09/09 12:10:50;;;;;;;1.17;1.08;;;;;;;34.13;61.01;100005.88;4436675;32;20088;-95
2023/09/09 12:13:16;;;;;;;0.60;0.57;;;;;;;34.28;61.02;100011.16;4423387;32;21229;-94
2023/09/09 12:15:41;;;;;;;0.40;0.40;;;;;;;34.21;61.01;100004.88;4420175;32;20212;-94
2023/09/09 12:18:13;;;;;;;0.40;0.40;;;;;;;33.88;61.00;100001.06;4428932;32;20097;-95
2023/09/09 12:21:00;;;;;;;0.15;0.15;;;;;;;33.98;61.00;100001.56;4415897;32;20092;-96
2023/09/09 12:23:32;;;;;;;0.77;0.77;;;;;;;33.92;61.00;99995.09;4420763;32;20117;-95
2023/09/09 12:26:13;;;;;;;0.85;0.85;;;;;;;33.75;60.99;99994.47;4426669;32;20104;-94
2023/09/09 12:28:39;;;;;;;2.17;0.68;;;;;;;33.41;60.98;99995.16;4434200;32;20148;-95
2023/09/09 12:31:05;;;;;;;1.67;0.95;;;;;;;33.60;60.98;99996.41;4429275;32;20171;-95
2023/09/09 12:33:41;;;;;;;0.55;0.55;;;;;;;33.37;60.97;99984.97;4415707;32;20108;-94
2023/09/09 12:36:16;;;;;;;0.43;0.43;;;;;;;33.15;60.95;99992.13;4419762;32;20531;-95
2023/09/09 12:38:42;;;;;;;1.05;0.30;;;;;;;33.25;60.96;99987.28;4426485;32;20089;-94
2023/09/09 12:41:07;;;;;;;0.57;0.57;;;;;;;33.16;60.97;99983.03;4403743;32;20116;-94
2023/09/09 12:43:34;;;;;;;0.08;0.08;;;;;;;33.36;60.98;99977.84;4413504;32;20133;-94
2023/09/09 12:46:07;;;;;;;1.37;0.45;;;;;;;33.43;60.97;99982.31;4431365;32;20474;-95
2023/09/09 12:49:00;;;;;;;0.65;0.22;;;;;;;33.60;60.98;99974.81;4416092;32;20085;-95
2023/09/09 12:51:30;;;;;;;1.08;1.00;;;;;;;33.43;60.97;99970.69;4425610;32;20093;-95
2023/09/09 12:53:56;;;;;;;1.15;0.88;;;;;;;33.48;60.98;99976.34;4439370;32;20112;-94
2023/09/09 12:56:21;;;;;;;0.57;0.57;;;;;;;33.48;60.98;99973.66;4420347;32;20735;-95
2023/09/09 12:58:47;;;;;;;6.62;1.65;;;;;;;33.67;60.99;99969.47;4406946;32;20112;-95
2023/09/09 13:01:13;;;;;;;0.20;0.17;;;;;;;33.76;60.99;99968.31;4413436;32;20120;-94
2023/09/09 13:03:39;;;;;;;0.47;0.47;;;;;;;33.65;60.99;99966.97;4436019;32;20769;-95
2023/09/09 13:06:06;;;;;;;0.85;0.60;;;;;;;33.72;60.99;99961.63;4415866;32;20127;-95
2023/09/09 13:08:31;;;;;;;0.60;0.60;;;;;;;33.76;60.99;99961.03;4428779;32;20077;-94
2023/09/09 13:10:57;;;;;;;0.37;0.37;;;;;;;33.72;61.00;99959.75;4406130;32;20134;-94
2023/09/09 13:13:22;;;;;;;0.55;0.30;;;;;;;33.74;60.99;99957.69;4415938;32;20161;-95
2023/09/09 13:15:50;;;;;;;0.30;0.30;;;;;;;33.88;61.00;99955.16;4415527;32;20116;-95
2023/09/09 13:18:17;;;;;;;0.55;0.20;;;;;;;33.76;60.99;99968.31;4416290;32;20195;-95
2023/09/09 13:20:43;;;;;;;0.30;0.30;;;;;;;33.66;60.99;99952.44;4419014;32;20149;-95
2023/09/09 13:23:08;;;;;;;1.20;0.47;;;;;;;33.69;60.99;99957.44;4417975;32;20109;-95
2023/09/09 13:25:33;;;;;;;1.08;0.75;;;;;;;33.64;60.99;99951.81;4405159;32;20082;-94
2023/09/09 13:27:59;;;;;;;0.30;0.30;;;;;;;33.46;60.97;99946.00;4408376;32;20085;-94
2023/09/09 13:30:25;;;;;;;0.70;0.70;;;;;;;33.57;60.99;99951.72;4429127;32;20534;-95
2023/09/09 13:32:50;;;;;;;0.57;0.57;;;;;;;33.49;60.98;99946.47;4416768;32;20174;-95
2023/09/09 13:35:16;;;;;;;2.55;0.55;;;;;;;33.48;60.98;99950.19;4417496;32;20109;-94
2023/09/09 13:37:41;;;;;;;1.00;0.70;;;;;;;33.63;60.97;99947.44;4425639;32;20101;-92
2023/09/09 13:40:08;;;;;;;0.40;0.37;;;;;;;33.43;60.98;99943.72;4423734;32;20088;-94
2023/09/09 13:42:33;;;;;;;0.43;0.43;;;;;;;33.45;60.97;99938.94;4416037;32;20128;-94
2023/09/09 13:44:59;;;;;;;0.52;0.47;;;;;;;33.42;60.98;99939.34;4389917;32;20169;-95
2023/09/09 13:47:24;;;;;;;0.68;0.40;;;;;;;33.19;60.96;99939.47;4413334;32;20374;-94
2023/09/09 13:49:50;;;;;;;1.02;0.40;;;;;;;33.27;60.97;99940.19;4413022;32;20097;-94
2023/09/09 13:52:16;;;;;;;0.43;0.30;;;;;;;33.43;60.98;99943.72;4425684;32;20211;-95
2023/09/09 13:54:42;;;;;;;0.65;0.65;;;;;;;33.27;60.97;99944.75;4413077;32;20101;-95
2023/09/09 13:57:07;;;;;;;0.32;0.32;;;;;;;33.29;60.97;99934.59;4433393;32;20121;-94
2023/09/09 13:59:33;;;;;;;1.02;0.93;;;;;;;33.46;60.97;99941.44;4440925;32;20453;-95
2023/09/09 14:02:00;;;;;;;1.08;0.98;;;;;;;33.49;60.98;99940.22;4427222;32;20120;-95
2023/09/09 14:04:26;;;;;;;0.45;0.45;;;;;;;33.37;60.97;99937.22;4412865;32;20745;-95
2023/09/09 14:06:51;;;;;;;0.68;0.68;;;;;;;33.33;60.98;99935.06;4431729;32;20062;-95
2023/09/09 14:09:17;;;;;;;1.08;0.68;;;;;;;33.35;60.97;99933.84;4413700;32;20136;-94
2023/09/09 14:11:42;;;;;;;0.50;0.40;;;;;;;33.22;60.96;99931.84;4413124;32;20117;-94
2023/09/09 14:14:08;;;;;;;0.73;0.73;;;;;;;33.23;60.97;99930.81;4422671;32;20149;-94
2023/09/09 14:16:33;;;;;;;0.52;0.10;;;;;;;33.09;60.96;99937.06;4434850;32;20422;-95
2023/09/09 14:18:59;;;;;;;0.40;0.40;;;;;;;33.07;60.96;99932.87;4427839;32;20438;-94
2023/09/09 14:21:24;;;;;;;1.55;1.20;;;;;;;33.12;60.96;99933.16;4412581;32;20508;-95
2023/09/09 14:23:50;;;;;;;0.73;0.57;;;;;;;33.11;60.96;99931.47;4440443;32;20143;-94
2023/09/09 14:26:16;;;;;;;0.30;0.30;;;;;;;33.10;60.96;99930.66;4406374;32;20097;-94
2023/09/09 14:28:42;;;;;;;2.15;0.82;;;;;;;33.10;60.96;99925.25;4425601;32;20495;-94
2023/09/09 14:31:08;;;;;;;0.25;0.25;;;;;;;33.16;60.97;99929.06;4415471;32;20178;-95
2023/09/09 14:33:33;;;;;;;0.65;0.45;;;;;;;32.81;60.95;99928.00;4402509;32;20101;-94
2023/09/09 14:35:59;;;;;;;0.25;0.20;;;;;;;32.93;60.95;99919.28;4440656;32;20084;-95
2023/09/09 14:38:24;;;;;;;0.17;0.15;;;;;;;32.80;60.95;99923.66;4417815;32;20073;-94
2023/09/09 14:40:50;;;;;;;1.80;1.10;;;;;;;32.86;60.95;99912.94;4415279;32;20422;-95
2023/09/09 14:43:15;;;;;;;0.57;0.37;;;;;;;32.57;60.93;99921.03;4427360;32;20173;-95
2023/09/09 14:45:43;;;;;;;2.15;0.50;;;;;;;32.71;60.94;99914.81;4427719;32;20137;-95
2023/09/09 14:48:13;;;;;;;1.23;0.73;;;;;;;32.83;60.95;99916.03;4415597;32;20088;-95
2023/09/09 14:50:40;;;;;;;1.12;0.60;;;;;;;32.59;60.94;99911.75;4415246;32;20096;-94
2023/09/09 14:53:05;;;;;;;1.02;0.82;;;;;;;32.66;60.95;99920.78;4415151;32;20061;-94
2023/09/09 14:55:30;;;;;;;0.52;0.40;;;;;;;32.52;60.94;99915.38;4415259;32;20157;-95